Time;durP1;ratioP1;P1;durP2;ratioP2;P2;SDS_P1;SDS_P2;PMS_P1;PMS_P2;Temp;Humidity;BMP_temperature;BMP_pressure;BME280_temperature;BME280_humidity;BME280_pressure;Samples;Min_cycle;Max_cycle;Signal;HPM_P1;HPM_P2
2023/12/31 00:02:16;;;;;;;2.92;1.85;;;;;;;;;;5049640;27;99394;-76
2023/12/31 00:04:43;;;;;;;2.03;1.92;;;;;;;;;;5050485;27;99953;-76
2023/12/31 00:07:11;;;;;;;2.63;2.42;;;;;;;;;;5050257;27;98376;-75
2023/12/31 00:09:38;;;;;;;4.68;1.65;;;;;;;;;;5049758;27;99528;-75
2023/12/31 00:12:05;;;;;;;2.42;1.95;;;;;;;;;;5050012;27;100155;-76
2023/12/31 00:14:31;;;;;;;1.83;1.73;;;;;;;;;;5050571;27;98246;-76
2023/12/31 00:16:57;;;;;;;2.20;2.10;;;;;;;;;;5049496;27;99490;-76
2023/12/31 00:19:25;;;;;;;2.13;2.03;;;;;;;;;;5052619;27;100114;-76
2023/12/31 00:21:51;;;;;;;3.33;1.80;;;;;;;;;;5050294;27;99468;-75
2023/12/31 00:24:18;;;;;;;2.20;2.03;;;;;;;;;;5048743;27;100128;-76
2023/12/31 00:26:44;;;;;;;7.07;1.95;;;;;;;;;;5050091;27;98235;-75
2023/12/31 00:29:10;;;;;;;2.42;1.67;;;;;;;;;;5049166;27;99730;-75
2023/12/31 00:31:37;;;;;;;2.53;1.80;;;;;;;;;;5049971;27;98805;-75
2023/12/31 00:34:03;;;;;;;2.03;1.83;;;;;;;;;;5049595;27;98203;-75
2023/12/31 00:36:31;;;;;;;2.00;1.90;;;;;;;;;;5049962;27;98624;-75
2023/12/31 00:38:57;;;;;;;1.58;1.48;;;;;;;;;;5049382;27;98859;-74
2023/12/31 00:41:24;;;;;;;1.70;1.60;;;;;;;;;;5053449;27;98539;-75
2023/12/31 00:43:50;;;;;;;2.00;1.90;;;;;;;;;;5048405;27;100788;-75
2023/12/31 00:46:17;;;;;;;1.60;1.50;;;;;;;;;;5049821;27;98193;-75
2023/12/31 00:48:43;;;;;;;2.10;1.90;;;;;;;;;;5050260;27;98679;-75
2023/12/31 00:51:10;;;;;;;2.88;1.60;;;;;;;;;;5046987;27;101637;-75
2023/12/31 00:53:37;;;;;;;2.55;1.75;;;;;;;;;;5048369;27;98165;-76
2023/12/31 00:56:03;;;;;;;2.03;1.90;;;;;;;;;;5049623;27;99415;-75
2023/12/31 00:58:30;;;;;;;2.08;1.90;;;;;;;;;;5046879;27;101106;-75
2023/12/31 01:00:56;;;;;;;1.52;1.42;;;;;;;;;;5049732;27;98680;-75
2023/12/31 01:03:23;;;;;;;3.30;1.60;;;;;;;;;;5053038;27;98591;-75
2023/12/31 01:05:49;;;;;;;1.67;1.58;;;;;;;;;;5047422;27;98403;-76
2023/12/31 01:08:16;;;;;;;4.55;1.48;;;;;;;;;;5048755;27;98627;-75
2023/12/31 01:10:42;;;;;;;8.88;2.03;;;;;;;;;;5049741;27;98771;-76
2023/12/31 01:13:09;;;;;;;1.40;1.30;;;;;;;;;;5047866;27;98284;-75
2023/12/31 01:15:35;;;;;;;1.58;1.48;;;;;;;;;;5049926;27;98719;-76
2023/12/31 01:18:02;;;;;;;2.63;1.92;;;;;;;;;;5048957;27;98821;-76
2023/12/31 01:20:29;;;;;;;1.60;1.50;;;;;;;;;;5048479;27;99163;-76
2023/12/31 01:22:55;;;;;;;1.42;1.33;;;;;;;;;;5049602;27;98579;-76
2023/12/31 01:25:23;;;;;;;1.35;1.35;;;;;;;;;;5052636;27;98220;-76
2023/12/31 01:27:50;;;;;;;2.65;1.60;;;;;;;;;;5047801;27;99679;-75
2023/12/31 01:30:16;;;;;;;4.72;2.20;;;;;;;;;;5047339;27;101661;-75
2023/12/31 01:32:43;;;;;;;3.45;1.60;;;;;;;;;;5047697;27;98197;-75
2023/12/31 01:35:10;;;;;;;2.25;1.48;;;;;;;;;;5048433;27;99307;-76
2023/12/31 01:37:37;;;;;;;4.35;1.75;;;;;;;;;;5048518;27;100458;-76
2023/12/31 01:40:04;;;;;;;1.77;1.67;;;;;;;;;;5045892;27;98346;-76
2023/12/31 01:42:31;;;;;;;1.67;1.58;;;;;;;;;;5047903;27;101042;-76
2023/12/31 01:44:58;;;;;;;1.55;1.45;;;;;;;;;;5052096;27;98866;-76
2023/12/31 01:47:24;;;;;;;1.10;1.10;;;;;;;;;;5048116;27;99386;-76
2023/12/31 01:49:51;;;;;;;2.40;1.98;;;;;;;;;;5049549;27;98390;-76
2023/12/31 01:52:18;;;;;;;3.13;1.17;;;;;;;;;;5049300;27;98177;-76
2023/12/31 01:54:45;;;;;;;1.75;1.65;;;;;;;;;;5049646;27;98744;-76
2023/12/31 01:57:12;;;;;;;1.25;1.25;;;;;;;;;;5047918;27;98941;-76
2023/12/31 01:59:39;;;;;;;1.70;1.60;;;;;;;;;;5047665;27;98315;-76
2023/12/31 02:02:05;;;;;;;1.58;1.30;;;;;;;;;;5046533;27;100941;-76
2023/12/31 02:04:35;;;;;;;1.50;1.38;;;;;;;;;;5046742;27;99913;-76
2023/12/31 02:07:02;;;;;;;1.10;1.10;;;;;;;;;;5052317;27;98055;-76
2023/12/31 02:09:29;;;;;;;1.98;1.25;;;;;;;;;;5046700;27;101136;-76
2023/12/31 02:11:57;;;;;;;1.17;1.08;;;;;;;;;;5047890;27;99008;-76
2023/12/31 02:14:23;;;;;;;2.03;1.42;;;;;;;;;;5046909;27;100304;-76
2023/12/31 02:16:50;;;;;;;1.38;1.27;;;;;;;;;;5047718;27;98775;-76
2023/12/31 02:19:16;;;;;;;1.55;1.30;;;;;;;;;;5046488;27;98243;-75
2023/12/31 02:21:43;;;;;;;3.53;1.90;;;;;;;;;;5047309;27;99143;-76
2023/12/31 02:24:11;;;;;;;2.28;2.08;;;;;;;;;;5047961;27;98936;-76
2023/12/31 02:26:38;;;;;;;1.60;1.50;;;;;;;;;;5046921;27;98281;-76
2023/12/31 02:29:04;;;;;;;3.78;1.90;;;;;;;;;;5050597;27;98253;-76
2023/12/31 02:31:31;;;;;;;1.77;1.30;;;;;;;;;;5048359;27;98736;-75
2023/12/31 02:33:59;;;;;;;1.30;1.20;;;;;;;;;;5047209;27;98425;-76
2023/12/31 02:36:26;;;;;;;2.17;1.40;;;;;;;;;;5047646;27;99339;-75
2023/12/31 02:38:52;;;;;;;2.10;1.23;;;;;;;;;;5048676;27;98312;-75
2023/12/31 02:41:18;;;;;;;3.97;1.10;;;;;;;;;;5046467;27;99382;-76
2023/12/31 02:43:45;;;;;;;1.00;1.00;;;;;;;;;;5045766;27;100406;-75
2023/12/31 02:46:11;;;;;;;0.93;0.85;;;;;;;;;;5047303;27;98248;-75
2023/12/31 02:48:38;;;;;;;1.77;1.25;;;;;;;;;;5048315;27;98259;-75
2023/12/31 02:51:07;;;;;;;4.10;1.50;;;;;;;;;;5050009;27;100087;-76
2023/12/31 02:53:33;;;;;;;3.53;1.15;;;;;;;;;;5048358;27;98334;-76
2023/12/31 02:56:01;;;;;;;1.85;1.00;;;;;;;;;;5046173;27;100985;-76
2023/12/31 02:58:29;;;;;;;1.73;1.63;;;;;;;;;;5047282;27;98387;-75
2023/12/31 03:00:56;;;;;;;1.23;1.00;;;;;;;;;;5046541;27;101125;-75
2023/12/31 03:03:22;;;;;;;2.35;1.10;;;;;;;;;;5047988;27;98683;-75
2023/12/31 03:05:50;;;;;;;3.33;1.13;;;;;;;;;;5047089;27;98927;-75
2023/12/31 03:08:16;;;;;;;0.90;0.90;;;;;;;;;;5047239;27;98880;-75
2023/12/31 03:10:43;;;;;;;1.20;1.10;;;;;;;;;;5045342;27;101079;-75
2023/12/31 03:13:09;;;;;;;3.95;1.40;;;;;;;;;;5049119;27;98269;-75
2023/12/31 03:15:36;;;;;;;2.05;1.20;;;;;;;;;;5045659;27;101224;-75
2023/12/31 03:18:04;;;;;;;1.00;1.00;;;;;;;;;;5046867;27;98467;-75
2023/12/31 03:20:31;;;;;;;1.20;1.20;;;;;;;;;;5047866;27;98386;-75
2023/12/31 03:22:57;;;;;;;1.50;1.15;;;;;;;;;;5045708;27;101672;-75
2023/12/31 03:25:23;;;;;;;2.28;1.20;;;;;;;;;;5046589;27;98181;-77
2023/12/31 03:27:50;;;;;;;2.35;1.10;;;;;;;;;;5047971;27;98926;-76
2023/12/31 03:30:17;;;;;;;2.03;1.10;;;;;;;;;;5045437;27;101914;-76
2023/12/31 03:32:43;;;;;;;0.80;0.80;;;;;;;;;;5050206;27;98339;-76
2023/12/31 03:35:10;;;;;;;2.60;1.38;;;;;;;;;;5044892;27;101747;-76
2023/12/31 03:37:36;;;;;;;1.33;0.95;;;;;;;;;;5047458;27;98229;-76
2023/12/31 03:40:03;;;;;;;2.83;0.98;;;;;;;;;;5046295;27;98565;-76
2023/12/31 03:42:30;;;;;;;1.10;1.10;;;;;;;;;;5046963;27;99996;-76
2023/12/31 03:44:56;;;;;;;1.52;1.30;;;;;;;;;;5046991;27;98245;-75
2023/12/31 03:47:23;;;;;;;1.35;1.00;;;;;;;;;;5046949;27;98440;-75
2023/12/31 03:49:50;;;;;;;1.60;1.40;;;;;;;;;;5047253;27;98972;-75
2023/12/31 03:52:16;;;;;;;1.27;1.17;;;;;;;;;;5047331;27;98161;-75
2023/12/31 03:54:43;;;;;;;2.35;1.42;;;;;;;;;;5049825;27;98454;-75
2023/12/31 03:57:09;;;;;;;2.33;1.30;;;;;;;;;;5047156;27;98205;-74
2023/12/31 03:59:36;;;;;;;1.83;1.38;;;;;;;;;;5045235;27;99881;-75
2023/12/31 04:02:03;;;;;;;4.32;1.33;;;;;;;;;;5044333;27;101639;-76
2023/12/31 04:04:30;;;;;;;1.20;1.20;;;;;;;;;;5047539;27;98324;-75
2023/12/31 04:06:57;;;;;;;2.08;1.13;;;;;;;;;;5049026;27;99643;-76
2023/12/31 04:09:23;;;;;;;1.77;1.40;;;;;;;;;;5048093;27;100145;-75
2023/12/31 04:11:50;;;;;;;1.20;1.13;;;;;;;;;;5049977;27;98205;-75
2023/12/31 04:14:16;;;;;;;1.33;1.23;;;;;;;;;;5049651;27;98384;-75
2023/12/31 04:16:43;;;;;;;1.30;1.00;;;;;;;;;;5052488;27;100925;-75
2023/12/31 04:19:14;;;;;;;2.25;1.30;;;;;;;;;;5050134;27;100171;-76
2023/12/31 04:21:41;;;;;;;2.72;1.23;;;;;;;;;;5049341;27;99277;-76
2023/12/31 04:24:07;;;;;;;1.50;1.40;;;;;;;;;;5049210;27;98179;-77
2023/12/31 04:26:34;;;;;;;1.35;1.35;;;;;;;;;;5049052;27;103095;-75
2023/12/31 04:29:00;;;;;;;2.30;1.40;;;;;;;;;;5049168;27;98825;-75
2023/12/31 04:31:27;;;;;;;2.45;1.40;;;;;;;;;;5049117;27;98192;-74
2023/12/31 04:33:53;;;;;;;1.27;1.27;;;;;;;;;;5050118;27;99459;-75
2023/12/31 04:36:20;;;;;;;1.70;1.25;;;;;;;;;;5048725;27;98701;-75
2023/12/31 04:38:46;;;;;;;1.10;1.10;;;;;;;;;;5053507;27;98215;-74
2023/12/31 04:41:20;;;;;;;1.23;1.23;;;;;;;;;;5049471;27;100055;-76
2023/12/31 04:43:46;;;;;;;1.50;1.40;;;;;;;;;;5048105;27;99442;-75
2023/12/31 04:46:13;;;;;;;2.65;1.60;;;;;;;;;;5048233;27;101159;-77
2023/12/31 04:48:41;;;;;;;2.30;1.38;;;;;;;;;;5048860;27;100188;-75
2023/12/31 04:51:07;;;;;;;1.50;1.40;;;;;;;;;;5048940;27;98168;-74
2023/12/31 04:53:34;;;;;;;1.55;1.45;;;;;;;;;;5048454;27;99790;-75
2023/12/31 04:56:00;;;;;;;1.50;1.40;;;;;;;;;;5049142;27;101757;-75
2023/12/31 04:58:27;;;;;;;3.92;1.48;;;;;;;;;;5049867;27;98245;-76
2023/12/31 05:00:53;;;;;;;2.45;1.38;;;;;;;;;;5051401;27;99925;-76
2023/12/31 05:03:20;;;;;;;1.52;1.42;;;;;;;;;;5047562;27;98318;-76
2023/12/31 05:05:46;;;;;;;1.80;1.50;;;;;;;;;;5049406;27;99813;-76
2023/12/31 05:08:13;;;;;;;3.03;1.42;;;;;;;;;;5048932;27;100082;-76
2023/12/31 05:10:40;;;;;;;1.67;1.58;;;;;;;;;;5048889;27;98240;-76
2023/12/31 05:13:07;;;;;;;1.52;1.30;;;;;;;;;;5047719;27;98691;-76
2023/12/31 05:15:35;;;;;;;4.00;1.42;;;;;;;;;;5048427;27;99500;-76
2023/12/31 05:18:02;;;;;;;1.63;1.52;;;;;;;;;;5048086;27;98224;-76
2023/12/31 05:20:29;;;;;;;1.48;1.48;;;;;;;;;;5049193;27;99721;-76
2023/12/31 05:22:55;;;;;;;3.17;1.90;;;;;;;;;;5052193;27;99798;-76
2023/12/31 05:25:22;;;;;;;1.35;1.35;;;;;;;;;;5048662;27;99393;-76
2023/12/31 05:27:48;;;;;;;1.58;1.52;;;;;;;;;;5048987;27;99893;-76
2023/12/31 05:30:15;;;;;;;1.40;1.40;;;;;;;;;;5049254;27;98268;-76
2023/12/31 05:32:41;;;;;;;5.72;1.60;;;;;;;;;;5048771;27;99405;-76
2023/12/31 05:35:09;;;;;;;1.50;1.40;;;;;;;;;;5048662;27;99942;-77
2023/12/31 05:37:35;;;;;;;1.45;1.42;;;;;;;;;;5052865;27;98280;-75
2023/12/31 05:40:02;;;;;;;1.30;1.25;;;;;;;;;;5048966;27;99399;-76
2023/12/31 05:42:28;;;;;;;2.50;1.67;;;;;;;;;;5054960;27;100290;-76
2023/12/31 05:44:55;;;;;;;1.50;1.17;;;;;;;;;;5050616;27;98912;-76
2023/12/31 05:47:21;;;;;;;1.52;1.40;;;;;;;;;;5049306;27;100971;-76
2023/12/31 05:50:08;;;;;;;3.55;1.70;;;;;;;;;;5048918;27;98134;-76
2023/12/31 05:52:35;;;;;;;1.60;1.50;;;;;;;;;;5050558;27;98464;-76
2023/12/31 05:55:01;;;;;;;1.42;1.42;;;;;;;;;;5047983;27;100287;-76
2023/12/31 05:57:27;;;;;;;1.63;1.52;;;;;;;;;;5049141;27;98244;-76
2023/12/31 05:59:54;;;;;;;2.15;1.80;;;;;;;;;;5048138;27;99442;-76
2023/12/31 06:02:22;;;;;;;1.73;1.65;;;;;;;;;;5048719;27;99954;-76
2023/12/31 06:04:48;;;;;;;1.33;1.33;;;;;;;;;;5054430;27;97998;-76
2023/12/31 06:07:14;;;;;;;2.20;1.70;;;;;;;;;;5047227;27;99227;-76
2023/12/31 06:09:41;;;;;;;1.90;1.77;;;;;;;;;;5048618;27;99280;-76
2023/12/31 06:12:07;;;;;;;2.00;1.90;;;;;;;;;;5047956;27;99324;-76
2023/12/31 06:14:34;;;;;;;2.13;1.95;;;;;;;;;;5051712;27;100258;-76
2023/12/31 06:17:00;;;;;;;3.78;2.00;;;;;;;;;;5048426;27;98748;-77
2023/12/31 06:19:26;;;;;;;2.00;1.90;;;;;;;;;;5048724;27;99522;-76
2023/12/31 06:21:54;;;;;;;1.63;1.52;;;;;;;;;;5047094;27;98618;-76
2023/12/31 06:24:21;;;;;;;2.70;2.00;;;;;;;;;;5048234;27;98603;-75
2023/12/31 06:26:47;;;;;;;1.83;1.70;;;;;;;;;;5050154;27;99545;-75
2023/12/31 06:29:13;;;;;;;1.65;1.55;;;;;;;;;;5047342;27;98578;-75
2023/12/31 06:31:40;;;;;;;1.70;1.60;;;;;;;;;;5048349;27;99465;-75
2023/12/31 06:34:07;;;;;;;2.17;1.90;;;;;;;;;;5047746;27;100383;-75
2023/12/31 06:36:33;;;;;;;1.88;1.77;;;;;;;;;;5047566;27;98271;-75
2023/12/31 06:39:00;;;;;;;3.90;2.00;;;;;;;;;;5047913;27;99393;-75
2023/12/31 06:41:26;;;;;;;2.33;2.13;;;;;;;;;;5048395;27;99978;-75
2023/12/31 06:43:53;;;;;;;2.90;1.73;;;;;;;;;;5047544;27;98214;-75
2023/12/31 06:46:20;;;;;;;3.58;2.58;;;;;;;;;;5048085;27;98500;-75
2023/12/31 06:48:46;;;;;;;2.88;2.15;;;;;;;;;;5051308;27;99851;-75
2023/12/31 06:51:12;;;;;;;2.50;2.30;;;;;;;;;;5046437;27;99524;-75
2023/12/31 06:53:39;;;;;;;3.13;2.33;;;;;;;;;;5047691;27;100058;-75
2023/12/31 06:56:06;;;;;;;2.30;1.95;;;;;;;;;;5046500;27;98555;-76
2023/12/31 06:58:36;;;;;;;1.85;1.75;;;;;;;;;;5048075;27;99480;-76
2023/12/31 07:01:03;;;;;;;2.33;2.13;;;;;;;;;;5047517;27;99911;-75
2023/12/31 07:03:29;;;;;;;2.22;2.03;;;;;;;;;;5047393;27;98027;-75
2023/12/31 07:05:56;;;;;;;1.90;1.80;;;;;;;;;;5048006;27;99523;-76
2023/12/31 07:08:23;;;;;;;2.75;2.45;;;;;;;;;;5048038;27;100245;-75
2023/12/31 07:10:52;;;;;;;2.00;1.90;;;;;;;;;;5050057;27;98511;-75
2023/12/31 07:13:20;;;;;;;2.45;2.28;;;;;;;;;;5047049;27;99892;-75
2023/12/31 07:15:49;;;;;;;2.25;1.88;;;;;;;;;;5046953;27;98517;-74
2023/12/31 07:18:16;;;;;;;8.60;2.13;;;;;;;;;;5047047;27;98494;-75
2023/12/31 07:20:43;;;;;;;3.05;2.75;;;;;;;;;;5047025;27;100204;-75
2023/12/31 07:23:09;;;;;;;2.90;2.58;;;;;;;;;;5047293;27;98495;-75
2023/12/31 07:25:36;;;;;;;2.53;2.30;;;;;;;;;;5046427;27;98851;-75
2023/12/31 07:28:02;;;;;;;2.55;2.35;;;;;;;;;;5047228;27;99872;-75
2023/12/31 07:30:29;;;;;;;2.13;2.00;;;;;;;;;;5047478;27;98229;-75
2023/12/31 07:32:56;;;;;;;2.65;2.25;;;;;;;;;;5050182;27;99401;-74
2023/12/31 07:35:22;;;;;;;2.33;2.10;;;;;;;;;;5047723;27;98300;-74
2023/12/31 07:37:49;;;;;;;3.47;2.33;;;;;;;;;;5047296;27;99447;-75
2023/12/31 07:40:15;;;;;;;2.50;2.40;;;;;;;;;;5048628;27;100027;-75
2023/12/31 07:42:42;;;;;;;3.42;2.13;;;;;;;;;;5050731;27;98236;-75
2023/12/31 07:45:09;;;;;;;4.43;1.65;;;;;;;;;;5049336;27;100773;-75
2023/12/31 07:47:38;;;;;;;2.08;1.98;;;;;;;;;;5050021;27;99759;-75
2023/12/31 07:50:07;;;;;;;2.08;1.98;;;;;;;;;;5050225;27;98232;-74
2023/12/31 07:52:34;;;;;;;5.50;2.08;;;;;;;;;;5053224;27;99312;-75
2023/12/31 07:55:02;;;;;;;2.30;2.20;;;;;;;;;;5050566;27;98685;-74
2023/12/31 07:57:29;;;;;;;2.38;2.17;;;;;;;;;;5050473;27;98551;-75
2023/12/31 07:59:56;;;;;;;2.13;2.03;;;;;;;;;;5049210;27;98992;-75
2023/12/31 08:02:22;;;;;;;2.13;2.03;;;;;;;;;;5050527;27;98216;-75
2023/12/31 08:04:49;;;;;;;2.10;2.00;;;;;;;;;;5049591;27;99603;-75
2023/12/31 08:07:15;;;;;;;2.20;2.03;;;;;;;;;;5049204;27;100013;-75
2023/12/31 08:09:41;;;;;;;6.40;2.65;;;;;;;;;;5050061;27;98253;-74
2023/12/31 08:12:08;;;;;;;4.40;2.10;;;;;;;;;;5049793;27;99440;-74
2023/12/31 08:14:34;;;;;;;2.55;2.35;;;;;;;;;;5052993;27;99985;-74
2023/12/31 08:17:01;;;;;;;1.70;1.60;;;;;;;;;;5049821;27;100121;-74
2023/12/31 08:19:27;;;;;;;2.60;2.40;;;;;;;;;;5049889;27;99858;-74
2023/12/31 08:21:53;;;;;;;2.10;2.00;;;;;;;;;;5049717;27;98324;-76
2023/12/31 08:24:21;;;;;;;2.25;1.65;;;;;;;;;;5049903;27;98408;-74
2023/12/31 08:26:47;;;;;;;2.45;1.98;;;;;;;;;;5050160;27;99925;-75
2023/12/31 08:29:14;;;;;;;3.17;2.25;;;;;;;;;;5048295;27;98062;-75
2023/12/31 08:31:41;;;;;;;2.70;2.47;;;;;;;;;;5050211;27;99348;-75
2023/12/31 08:34:09;;;;;;;3.85;2.20;;;;;;;;;;5049712;27;99862;-75
2023/12/31 08:36:36;;;;;;;2.72;2.58;;;;;;;;;;5052583;27;99060;-76
2023/12/31 08:39:02;;;;;;;2.20;2.10;;;;;;;;;;5049090;27;100091;-76
2023/12/31 08:41:29;;;;;;;2.75;2.55;;;;;;;;;;5049681;27;98413;-76
2023/12/31 08:43:55;;;;;;;2.47;2.28;;;;;;;;;;5049634;27;99765;-76
2023/12/31 08:46:21;;;;;;;2.88;2.65;;;;;;;;;;5049417;27;99984;-76
2023/12/31 08:48:48;;;;;;;2.40;2.20;;;;;;;;;;5048941;27;98263;-76
2023/12/31 08:51:14;;;;;;;3.20;2.50;;;;;;;;;;5049051;27;99719;-76
2023/12/31 08:53:42;;;;;;;3.30;2.83;;;;;;;;;;5048195;27;99110;-76
2023/12/31 08:56:08;;;;;;;3.30;2.90;;;;;;;;;;5047983;27;98484;-75
2023/12/31 08:58:35;;;;;;;3.10;2.90;;;;;;;;;;5052746;27;99494;-76
2023/12/31 09:01:02;;;;;;;2.90;2.70;;;;;;;;;;5049125;27;98992;-75
2023/12/31 09:03:29;;;;;;;3.65;2.65;;;;;;;;;;5048355;27;98876;-75
2023/12/31 09:05:55;;;;;;;3.35;2.70;;;;;;;;;;5049250;27;100255;-75
2023/12/31 09:08:22;;;;;;;3.28;2.50;;;;;;;;;;5049610;27;98249;-76
2023/12/31 09:10:49;;;;;;;2.78;2.67;;;;;;;;;;5049038;27;99417;-76
2023/12/31 09:13:15;;;;;;;3.20;2.67;;;;;;;;;;5048284;27;99955;-76
2023/12/31 09:15:43;;;;;;;3.22;2.92;;;;;;;;;;5049255;27;98206;-76
2023/12/31 09:18:10;;;;;;;2.67;2.47;;;;;;;;;;5047539;27;99639;-76
2023/12/31 09:20:37;;;;;;;2.72;2.63;;;;;;;;;;5052409;27;100134;-76
2023/12/31 09:23:03;;;;;;;2.85;2.60;;;;;;;;;;5048606;27;98754;-75
2023/12/31 09:25:30;;;;;;;3.05;2.85;;;;;;;;;;5048375;27;99990;-76
2023/12/31 09:27:56;;;;;;;2.72;2.63;;;;;;;;;;5048874;27;98224;-77
2023/12/31 09:30:23;;;;;;;4.15;3.00;;;;;;;;;;5050007;27;99398;-76
2023/12/31 09:32:49;;;;;;;3.30;3.00;;;;;;;;;;5053988;27;99901;-76
2023/12/31 09:35:16;;;;;;;2.70;2.35;;;;;;;;;;5052187;27;99070;-75
2023/12/31 09:37:42;;;;;;;3.00;2.80;;;;;;;;;;5048982;27;98788;-76
2023/12/31 09:40:09;;;;;;;3.20;2.88;;;;;;;;;;5048232;27;100209;-75
2023/12/31 09:42:46;;;;;;;2.33;2.13;;;;;;;;;;5051484;27;98308;-76
2023/12/31 09:45:14;;;;;;;1.15;1.15;;;;;;;;;;5048039;27;100226;-76
2023/12/31 09:47:41;;;;;;;1.90;1.25;;;;;;;;;;5049749;27;99033;-76
2023/12/31 09:50:08;;;;;;;2.38;1.10;;;;;;;;;;5053342;27;99617;-75
2023/12/31 09:52:36;;;;;;;1.88;0.95;;;;;;;;;;5048799;27;98774;-75
2023/12/31 09:55:03;;;;;;;0.60;0.60;;;;;;;;;;5048089;27;98201;-76
2023/12/31 09:57:33;;;;;;;1.77;0.80;;;;;;;;;;5048965;27;99350;-76
2023/12/31 10:00:00;;;;;;;1.05;0.85;;;;;;;;;;5047726;27;100204;-76
2023/12/31 10:02:35;;;;;;;3.03;1.13;;;;;;;;;;5050045;27;98105;-76
2023/12/31 10:05:04;;;;;;;1.27;0.90;;;;;;;;;;5048009;27;99145;-77
2023/12/31 10:07:30;;;;;;;1.10;1.10;;;;;;;;;;5046494;27;98818;-77
2023/12/31 10:10:00;;;;;;;1.23;1.20;;;;;;;;;;5048398;27;99388;-78
2023/12/31 10:12:27;;;;;;;0.90;0.90;;;;;;;;;;5048017;27;100222;-77
2023/12/31 10:14:54;;;;;;;1.02;0.90;;;;;;;;;;5047154;27;98254;-77
2023/12/31 10:17:21;;;;;;;1.52;1.40;;;;;;;;;;5048474;27;100887;-78
2023/12/31 10:19:47;;;;;;;3.03;1.30;;;;;;;;;;5048127;27;100406;-78
2023/12/31 10:22:14;;;;;;;1.13;1.00;;;;;;;;;;5047268;27;98370;-77
2023/12/31 10:24:43;;;;;;;0.90;0.90;;;;;;;;;;5051569;27;99543;-77
2023/12/31 10:27:11;;;;;;;1.77;1.10;;;;;;;;;;5047372;27;98232;-78
2023/12/31 10:29:37;;;;;;;1.35;1.02;;;;;;;;;;5047762;27;98755;-77
2023/12/31 10:32:05;;;;;;;2.17;1.42;;;;;;;;;;5046977;27;100239;-77
2023/12/31 10:34:32;;;;;;;1.00;1.00;;;;;;;;;;5047701;27;98545;-77
2023/12/31 10:37:05;;;;;;;2.03;1.20;;;;;;;;;;5048001;27;99314;-77
2023/12/31 10:39:32;;;;;;;0.90;0.90;;;;;;;;;;5047414;27;99059;-77
2023/12/31 10:42:00;;;;;;;0.85;0.85;;;;;;;;;;5046601;27;98479;-77
2023/12/31 10:44:27;;;;;;;1.40;1.30;;;;;;;;;;5047943;27;99453;-76
2023/12/31 10:46:57;;;;;;;1.20;1.20;;;;;;;;;;5051174;27;100138;-76
2023/12/31 10:49:26;;;;;;;2.50;1.98;;;;;;;;;;5047485;27;99650;-77
2023/12/31 10:51:53;;;;;;;3.40;3.13;;;;;;;;;;5047551;27;100074;-77
2023/12/31 10:54:31;;;;;;;1.20;1.20;;;;;;;;;;5047060;27;98218;-76
2023/12/31 10:56:58;;;;;;;1.20;1.10;;;;;;;;;;5046171;27;99485;-76
2023/12/31 10:59:29;;;;;;;1.90;1.05;;;;;;;;;;5047725;27;99984;-77
2023/12/31 11:01:56;;;;;;;1.33;1.20;;;;;;;;;;5047990;27;98619;-76
2023/12/31 11:04:24;;;;;;;2.42;0.93;;;;;;;;;;5046984;27;99426;-77
2023/12/31 11:06:50;;;;;;;1.48;1.10;;;;;;;;;;5048043;27;100070;-77
2023/12/31 11:09:17;;;;;;;0.98;0.98;;;;;;;;;;5050233;27;98245;-76
2023/12/31 11:11:44;;;;;;;1.10;1.10;;;;;;;;;;5047137;27;99936;-77
2023/12/31 11:14:11;;;;;;;2.60;2.40;;;;;;;;;;5053428;27;98131;-76
2023/12/31 11:16:56;;;;;;;5.95;5.47;;;;;;;;;;5053906;27;99444;-76
2023/12/31 11:19:26;;;;;;;1.80;1.70;;;;;;;;;;5054190;27;100042;-76
2023/12/31 11:22:08;;;;;;;1.73;1.63;;;;;;;;;;5053717;27;98020;-76
2023/12/31 11:24:34;;;;;;;1.60;1.50;;;;;;;;;;5053561;27;98402;-76
2023/12/31 11:27:03;;;;;;;1.33;1.27;;;;;;;;;;5053186;27;98939;-77
2023/12/31 11:29:30;;;;;;;1.50;1.40;;;;;;;;;;5054339;27;98275;-76
2023/12/31 11:31:57;;;;;;;2.17;1.70;;;;;;;;;;5056522;27;99582;-77
2023/12/31 11:34:24;;;;;;;3.40;1.60;;;;;;;;;;5053587;27;98316;-77
2023/12/31 11:36:54;;;;;;;0.93;0.93;;;;;;;;;;5054043;27;99791;-77
2023/12/31 11:39:20;;;;;;;1.15;1.00;;;;;;;;;;5053227;27;99898;-77
2023/12/31 11:41:52;;;;;;;1.48;0.93;;;;;;;;;;5054188;27;98248;-76
2023/12/31 11:44:37;;;;;;;1.10;1.02;;;;;;;;;;5053738;27;98522;-76
2023/12/31 11:47:11;;;;;;;1.42;1.00;;;;;;;;;;5052778;27;99874;-77
2023/12/31 11:49:44;;;;;;;1.45;0.80;;;;;;;;;;5053566;27;98207;-77
2023/12/31 11:52:10;;;;;;;;;;;;;;;;;;5053289;27;99658;-77
2023/12/31 11:54:38;;;;;;;1.13;0.98;;;;;;;;;;5055660;27;98249;-76
2023/12/31 11:57:05;;;;;;;16.00;1.30;;;;;;;;;;5053671;27;99570;-76
2023/12/31 11:59:32;;;;;;;2.38;1.60;;;;;;;;;;5053010;27;100209;-76
2023/12/31 12:02:00;;;;;;;5.32;1.38;;;;;;;;;;5053690;27;98115;-76
2023/12/31 12:04:26;;;;;;;3.88;2.08;;;;;;;;;;5054168;27;99569;-76
2023/12/31 12:06:53;;;;;;;0.80;0.80;;;;;;;;;;5052983;27;99984;-76
2023/12/31 12:09:21;;;;;;;2.55;1.25;;;;;;;;;;5053417;27;98229;-77
2023/12/31 12:11:47;;;;;;;3.65;1.90;;;;;;;;;;5052695;27;99524;-76
2023/12/31 12:14:14;;;;;;;5.43;1.25;;;;;;;;;;5056002;27;99992;-76
2023/12/31 12:16:42;;;;;;;1.25;1.15;;;;;;;;;;5053447;27;99446;-77
2023/12/31 12:19:09;;;;;;;3.20;2.00;;;;;;;;;;5053135;27;100071;-77
2023/12/31 12:21:35;;;;;;;1.40;1.40;;;;;;;;;;5053008;27;98192;-77
2023/12/31 12:24:03;;;;;;;2.55;1.50;;;;;;;;;;5051927;27;99430;-77
2023/12/31 12:26:30;;;;;;;3.55;2.20;;;;;;;;;;5050093;27;99930;-77
2023/12/31 12:28:56;;;;;;;1.45;1.38;;;;;;;;;;5049456;27;98044;-77
2023/12/31 12:31:23;;;;;;;4.22;1.30;;;;;;;;;;5049982;27;99690;-77
2023/12/31 12:33:53;;;;;;;4.72;2.70;;;;;;;;;;5048951;27;101608;-76
2023/12/31 12:36:20;;;;;;;3.25;1.45;;;;;;;;;;5052225;27;98234;-77
2023/12/31 12:38:48;;;;;;;4.50;2.10;;;;;;;;;;5049854;27;99975;-76
2023/12/31 12:41:21;;;;;;;1.80;1.70;;;;;;;;;;5048998;27;98262;-76
2023/12/31 12:43:56;;;;;;;7.35;1.58;;;;;;;;;;5049988;27;99597;-76
2023/12/31 12:46:29;;;;;;;4.00;1.58;;;;;;;;;;5049959;27;99882;-76
2023/12/31 12:48:56;;;;;;;9.57;2.83;;;;;;;;;;5049856;27;98294;-77
2023/12/31 12:51:23;;;;;;;6.47;2.10;;;;;;;;;;5050239;27;99485;-78
2023/12/31 12:53:50;;;;;;;3.33;1.50;;;;;;;;;;5051136;27;100277;-76
2023/12/31 12:56:17;;;;;;;4.10;2.45;;;;;;;;;;5051214;27;98249;-77
2023/12/31 12:58:44;;;;;;;1.92;1.83;;;;;;;;;;5058552;27;97999;-76
2023/12/31 13:01:11;;;;;;;5.47;2.72;;;;;;;;;;5051091;27;99195;-77
2023/12/31 13:03:38;;;;;;;3.33;2.50;;;;;;;;;;5051797;27;99539;-76
2023/12/31 13:06:04;;;;;;;4.15;1.20;;;;;;;;;;5049958;27;100838;-76
2023/12/31 13:08:31;;;;;;;3.03;1.60;;;;;;;;;;5050746;27;98707;-76
2023/12/31 13:10:58;;;;;;;6.18;1.98;;;;;;;;;;5049343;27;99421;-76
2023/12/31 13:13:24;;;;;;;2.65;1.92;;;;;;;;;;5049584;27;99876;-76
2023/12/31 13:15:51;;;;;;;4.85;1.90;;;;;;;;;;5049404;27;98538;-77
2023/12/31 13:18:17;;;;;;;4.18;3.33;;;;;;;;;;5050351;27;99316;-76
2023/12/31 13:20:44;;;;;;;7.18;3.40;;;;;;;;;;5056375;27;99952;-76
2023/12/31 13:23:11;;;;;;;5.53;2.15;;;;;;;;;;5051422;27;100032;-76
2023/12/31 13:25:37;;;;;;;5.75;1.60;;;;;;;;;;5049150;27;100167;-77
2023/12/31 13:28:05;;;;;;;8.25;4.47;;;;;;;;;;5049134;27;98222;-78
2023/12/31 13:30:31;;;;;;;9.10;2.65;;;;;;;;;;5048624;27;98407;-77
2023/12/31 13:33:01;;;;;;;6.03;4.68;;;;;;;;;;5049135;27;100561;-76
2023/12/31 13:35:30;;;;;;;5.45;2.83;;;;;;;;;;5049156;27;98174;-76
2023/12/31 13:37:56;;;;;;;5.10;3.75;;;;;;;;;;5052635;27;99548;-76
2023/12/31 13:40:23;;;;;;;2.38;1.88;;;;;;;;;;5052374;27;99284;-76
2023/12/31 13:42:49;;;;;;;6.43;1.80;;;;;;;;;;5052735;27;98335;-76
2023/12/31 13:45:16;;;;;;;1.48;1.20;;;;;;;;;;5048566;27;100196;-76
2023/12/31 13:47:42;;;;;;;3.00;1.70;;;;;;;;;;5049185;27;98205;-76
2023/12/31 13:50:09;;;;;;;4.53;2.38;;;;;;;;;;5047828;27;99483;-76
2023/12/31 13:52:35;;;;;;;10.18;2.67;;;;;;;;;;5047880;27;100208;-76
2023/12/31 13:55:02;;;;;;;2.53;1.45;;;;;;;;;;5048554;27;99198;-76
2023/12/31 13:57:28;;;;;;;5.03;2.20;;;;;;;;;;5048713;27;99457;-76
2023/12/31 13:59:55;;;;;;;7.07;1.80;;;;;;;;;;5047900;27;99941;-77
2023/12/31 14:02:29;;;;;;;3.15;2.33;;;;;;;;;;5050153;27;98233;-76
2023/12/31 14:04:56;;;;;;;10.52;4.18;;;;;;;;;;5048165;27;99306;-76
2023/12/31 14:07:22;;;;;;;4.88;2.42;;;;;;;;;;5048296;27;98706;-76
2023/12/31 14:09:49;;;;;;;5.22;2.63;;;;;;;;;;5048528;27;98807;-77
2023/12/31 14:12:18;;;;;;;3.53;2.20;;;;;;;;;;5046835;27;100062;-76
2023/12/31 14:14:44;;;;;;;5.55;2.38;;;;;;;;;;5047324;27;98300;-76
2023/12/31 14:17:11;;;;;;;5.38;2.90;;;;;;;;;;5048011;27;99622;-76
2023/12/31 14:19:38;;;;;;;3.65;1.65;;;;;;;;;;5047362;27;100422;-75
2023/12/31 14:22:09;;;;;;;2.25;1.40;;;;;;;;;;5048272;27;98384;-76
2023/12/31 14:24:36;;;;;;;3.85;2.33;;;;;;;;;;5051366;27;99679;-76
2023/12/31 14:27:03;;;;;;;5.05;2.45;;;;;;;;;;5047561;27;98260;-76
2023/12/31 14:29:31;;;;;;;5.47;2.30;;;;;;;;;;5048494;27;99473;-75
2023/12/31 14:31:57;;;;;;;5.70;2.00;;;;;;;;;;5048220;27;99478;-76
2023/12/31 14:34:24;;;;;;;5.22;2.00;;;;;;;;;;5047550;27;98586;-76
2023/12/31 14:36:51;;;;;;;7.63;2.38;;;;;;;;;;5048205;27;99288;-76
2023/12/31 14:39:18;;;;;;;6.57;2.85;;;;;;;;;;5046928;27;100152;-77
2023/12/31 14:41:44;;;;;;;5.90;2.13;;;;;;;;;;5046638;27;98238;-76